Time;durP1;ratioP1;P1;durP2;ratioP2;P2;SDS_P1;SDS_P2;PMS_P1;PMS_P2;Temp;Humidity;BMP_temperature;BMP_pressure;BME280_temperature;BME280_humidity;BME280_pressure;Samples;Min_cycle;Max_cycle;Signal;HPM_P1;HPM_P2
2022/05/09 00:00:21;;;;;;;;;16.67;15.00;;;;;17.51;51.74;102105.44;5096352;27;46160;-42
2022/05/09 00:02:46;;;;;;;;;17.67;15.33;;;;;17.49;51.75;102106.59;5095576;27;45496;-41
2022/05/09 00:05:15;;;;;;;;;20.00;14.00;;;;;17.45;51.59;102098.88;5095852;27;45535;-42
2022/05/09 00:07:42;;;;;;;;;18.33;15.00;;;;;17.43;51.33;102106.25;5096263;27;45649;-41
2022/05/09 00:10:11;;;;;;;;;17.00;16.33;;;;;17.32;51.32;102093.06;5095975;27;46283;-41
2022/05/09 00:12:37;;;;;;;;;16.67;13.33;;;;;17.31;51.28;102096.75;5096201;27;45419;-42
2022/05/09 00:15:04;;;;;;;;;18.00;15.00;;;;;17.35;51.33;102108.88;5096251;27;45328;-41
2022/05/09 00:17:29;;;;;;;;;16.00;13.33;;;;;17.32;51.56;102102.97;5096241;27;45436;-41
2022/05/09 00:19:54;;;;;;;;;18.33;14.33;;;;;17.31;51.46;102107.50;5095910;27;46609;-41
2022/05/09 00:22:20;;;;;;;;;15.00;13.33;;;;;17.29;51.56;102103.31;5094663;27;45761;-41
2022/05/09 00:24:45;;;;;;;;;16.67;14.67;;;;;17.27;51.52;102103.44;5094802;27;45359;-42
2022/05/09 00:27:10;;;;;;;;;13.33;13.33;;;;;17.24;51.67;102102.94;5096217;27;45310;-41
2022/05/09 00:29:36;;;;;;;;;15.33;11.00;;;;;17.23;51.64;102103.91;5095954;27;46317;-41
2022/05/09 00:32:02;;;;;;;;;18.00;13.00;;;;;17.15;51.56;102099.31;5095889;27;45300;-41
2022/05/09 00:34:27;;;;;;;;;16.33;12.00;;;;;17.08;51.69;102085.66;5094599;27;45324;-41
2022/05/09 00:36:55;;;;;;;;;16.67;14.67;;;;;17.10;52.15;102093.56;5096343;27;45295;-41
2022/05/09 00:39:20;;;;;;;;;18.00;15.00;;;;;17.12;52.08;102108.56;5095793;27;47047;-42
2022/05/09 00:41:46;;;;;;;;;18.33;14.00;;;;;17.10;52.00;102098.94;5095697;27;45331;-41
2022/05/09 00:44:17;;;;;;;;;17.67;15.67;;;;;17.07;52.13;102110.88;5095967;27;45329;-42
2022/05/09 00:46:46;;;;;;;;;18.67;13.67;;;;;17.04;52.31;102100.44;5095989;27;45267;-45
2022/05/09 00:49:32;;;;;;;;;19.33;17.00;;;;;17.00;52.19;102109.81;5095573;27;46375;-42
2022/05/09 00:52:12;;;;;;;;;18.50;13.50;;;;;16.95;52.04;102101.38;5095694;27;45378;-40
2022/05/09 00:54:40;;;;;;;;;17.33;16.33;;;;;16.91;52.40;102105.38;5095556;27;45350;-41
2022/05/09 00:57:11;;;;;;;;;20.33;15.00;;;;;16.90;52.16;102106.38;5096123;27;45308;-40
2022/05/09 00:59:39;;;;;;;;;14.33;13.33;;;;;16.86;52.57;102103.13;5095802;27;46434;-41
2022/05/09 01:02:05;;;;;;;;;18.00;16.33;;;;;16.79;52.49;102098.53;5098611;27;45407;-43
2022/05/09 01:04:38;;;;;;;;;16.00;14.33;;;;;16.80;52.38;102103.75;5099225;27;45377;-41
2022/05/09 01:07:04;;;;;;;;;12.00;11.00;;;;;16.78;52.48;102105.75;5099187;27;45327;-42
2022/05/09 01:09:29;;;;;;;;;15.00;12.00;;;;;16.75;52.38;102102.53;5098806;27;46244;-41
2022/05/09 01:11:55;;;;;;;;;13.00;9.67;;;;;16.71;52.46;102110.84;5099130;27;45458;-41
2022/05/09 01:14:28;;;;;;;;;15.00;12.00;;;;;16.66;52.31;102091.66;5099000;27;45228;-41
2022/05/09 01:16:55;;;;;;;;;11.00;8.33;;;;;16.65;52.57;102100.72;5099263;27;45231;-41
2022/05/09 01:19:36;;;;;;;;;16.00;12.00;;;;;16.52;52.52;102094.03;5098721;27;47014;-40
2022/05/09 01:22:04;;;;;;;;;13.00;13.00;;;;;16.58;52.35;102099.66;5098846;27;45394;-40
2022/05/09 01:24:29;;;;;;;;;11.00;11.00;;;;;16.54;52.65;102100.94;5099058;27;45391;-41
2022/05/09 01:26:56;;;;;;;;;12.00;10.67;;;;;16.51;52.52;102101.25;5099261;27;45342;-41
2022/05/09 01:29:39;;;;;;;;;11.67;11.00;;;;;16.48;52.48;102103.41;5098728;27;46128;-41
2022/05/09 01:32:08;;;;;;;;;13.00;12.67;;;;;16.45;52.32;102101.88;5098889;27;45351;-41
2022/05/09 01:34:37;;;;;;;;;13.00;11.33;;;;;16.42;52.44;102108.38;5098948;27;45391;-42
2022/05/09 01:37:05;;;;;;;;;13.33;11.00;;;;;16.39;52.67;102108.72;5098883;27;45426;-41
2022/05/09 01:39:32;;;;;;;;;13.33;9.33;;;;;16.37;52.64;102102.63;5098477;27;45341;-41
2022/05/09 01:42:03;;;;;;;;;12.00;10.33;;;;;16.35;52.65;102107.31;5098716;27;45356;-41
2022/05/09 01:44:28;;;;;;;;;10.00;9.33;;;;;16.33;52.74;102103.91;5098752;27;45383;-41
2022/05/09 01:49:39;;;;;;;;;13.00;11.33;;;;;16.29;52.50;102101.69;5098463;27;45395;-42
2022/05/09 01:52:07;;;;;;;;;13.00;13.00;;;;;16.27;52.36;102095.66;5097661;27;45190;-41
2022/05/09 01:54:33;;;;;;;;;11.00;10.00;;;;;16.20;52.55;102096.22;5098192;27;45395;-41
2022/05/09 01:56:58;;;;;;;;;10.67;9.67;;;;;16.18;52.37;102089.31;5098320;27;45472;-41
2022/05/09 01:59:24;;;;;;;;;10.33;8.33;;;;;16.17;52.51;102090.31;5098136;27;46284;-41
2022/05/09 02:02:00;;;;;;;;;9.67;9.67;;;;;16.16;52.23;102089.47;5098122;27;45458;-41
2022/05/09 02:04:26;;;;;;;;;11.00;9.33;;;;;16.16;52.50;102094.84;5098145;27;45379;-43
2022/05/09 02:06:54;;;;;;;;;14.33;11.33;;;;;16.14;52.51;102096.00;5098346;27;45388;-40
2022/05/09 02:09:19;;;;;;;;;11.67;8.00;;;;;16.12;52.42;102098.81;5113642;27;47188;-42
2022/05/09 02:11:45;;;;;;;;;11.67;7.67;;;;;16.10;52.28;102097.28;5096756;27;45557;-42
2022/05/09 02:14:10;;;;;;;;;11.67;10.00;;;;;16.10;52.48;102099.97;5097770;27;45318;-41
2022/05/09 02:16:36;;;;;;;;;11.67;8.33;;;;;16.08;52.16;102102.78;5098404;27;45475;-41
2022/05/09 02:19:04;;;;;;;;;9.33;8.67;;;;;16.07;52.07;102102.97;5097597;27;45983;-41
2022/05/09 02:21:30;;;;;;;;;10.00;8.67;;;;;16.04;52.21;102095.19;5097752;27;45446;-41
2022/05/09 02:23:56;;;;;;;;;13.00;9.67;;;;;16.01;51.89;102088.28;5097950;27;45381;-41
2022/05/09 02:26:21;;;;;;;;;10.33;6.67;;;;;15.98;51.82;102091.28;5098160;27;45357;-41
2022/05/09 02:28:47;;;;;;;;;9.33;7.67;;;;;15.95;52.06;102091.56;5097830;27;46021;-41
2022/05/09 02:31:12;;;;;;;;;9.00;9.00;;;;;15.87;52.04;102086.94;5097579;27;45366;-41
2022/05/09 02:33:38;;;;;;;;;8.00;6.00;;;;;15.84;51.94;102094.44;5097716;27;45348;-41
2022/05/09 02:36:03;;;;;;;;;6.67;6.67;;;;;15.83;52.14;102082.03;5098374;27;45346;-41
2022/05/09 02:38:29;;;;;;;;;10.00;8.00;;;;;15.85;52.04;102088.09;5097916;27;46108;-41
2022/05/09 02:40:56;;;;;;;;;9.33;7.00;;;;;15.82;52.19;102083.03;5113218;27;45321;-43
2022/05/09 02:43:22;;;;;;;;;9.00;9.00;;;;;15.72;52.07;102077.72;5097425;27;45496;-42
2022/05/09 02:45:48;;;;;;;;;9.00;7.67;;;;;15.77;52.11;102088.84;5097435;27;45464;-42
2022/05/09 02:48:13;;;;;;;;;10.33;8.67;;;;;15.78;52.35;102087.00;5097047;27;45364;-41
2022/05/09 02:50:39;;;;;;;;;10.00;8.00;;;;;15.76;52.23;102087.16;5096924;27;45319;-42
2022/05/09 02:53:07;;;;;;;;;10.00;7.00;;;;;15.75;52.20;102087.28;5097680;27;45449;-42
2022/05/09 02:55:33;;;;;;;;;11.33;10.00;;;;;15.71;52.28;102084.88;5097385;27;45314;-42
2022/05/09 02:58:00;;;;;;;;;12.67;9.33;;;;;15.60;52.20;102063.59;5097077;27;46017;-42
2022/05/09 03:00:29;;;;;;;;;10.33;10.00;;;;;15.68;52.11;102081.69;5097301;27;45312;-42
2022/05/09 03:05:41;;;;;;;;;9.33;8.00;;;;;15.55;52.49;102065.00;5097563;27;45311;-42
2022/05/09 03:08:09;;;;;;;;;11.00;7.33;;;;;15.61;52.38;102076.00;5097058;27;46226;-42
2022/05/09 03:10:35;;;;;;;;;10.00;9.67;;;;;15.60;52.33;102077.00;5097404;27;45439;-42
2022/05/09 03:13:02;;;;;;;;;12.00;8.67;;;;;15.60;52.49;102081.53;5096971;27;45576;-41
2022/05/09 03:15:30;;;;;;;;;9.00;9.00;;;;;15.56;52.57;102075.63;5097396;27;45359;-42
2022/05/09 03:17:56;;;;;;;;;10.00;9.00;;;;;15.56;52.58;102077.44;5096860;27;46247;-41
2022/05/09 03:20:22;;;;;;;;;11.67;6.67;;;;;15.54;52.61;102074.91;5096582;27;45615;-41
2022/05/09 03:22:48;;;;;;;;;8.67;6.33;;;;;15.52;52.80;102078.72;5096545;27;45366;-41
2022/05/09 03:25:14;;;;;;;;;12.00;9.00;;;;;15.49;52.71;102079.84;5097226;27;45327;-41
2022/05/09 03:27:39;;;;;;;;;11.00;9.00;;;;;15.45;52.55;102073.94;5096539;27;46705;-42
2022/05/09 03:30:06;;;;;;;;;9.33;6.33;;;;;15.41;52.52;102075.22;5097082;27;45319;-41
2022/05/09 03:32:32;;;;;;;;;9.67;7.33;;;;;15.39;52.77;102073.69;5096653;27;45303;-41
2022/05/09 03:34:57;;;;;;;;;12.67;8.33;;;;;15.37;52.65;102073.81;5097280;27;45584;-42
2022/05/09 03:37:23;;;;;;;;;10.67;8.33;;;;;15.36;52.66;102082.03;5096580;27;47098;-42
2022/05/09 03:39:48;;;;;;;;;11.33;7.00;;;;;15.32;52.94;102073.41;5112467;27;45475;-42
2022/05/09 03:42:13;;;;;;;;;8.67;8.00;;;;;15.29;53.03;102079.06;5097010;27;45293;-41
2022/05/09 03:44:39;;;;;;;;;11.33;8.33;;;;;15.29;53.10;102072.84;5096966;27;45379;-42
2022/05/09 03:47:04;;;;;;;;;13.00;10.00;;;;;15.27;53.08;102069.50;5096766;27;46058;-41
2022/05/09 03:49:29;;;;;;;;;19.67;7.67;;;;;15.23;53.16;102068.94;5096368;27;45467;-42
2022/05/09 03:51:55;;;;;;;;;10.33;8.33;;;;;15.20;53.54;102078.09;5096748;27;45469;-42
2022/05/09 03:54:20;;;;;;;;;10.00;9.00;;;;;15.09;53.36;102064.88;5096646;27;45448;-41
2022/05/09 03:56:45;;;;;;;;;14.33;9.33;;;;;15.18;53.63;102082.78;5096432;27;45404;-42
2022/05/09 03:59:11;;;;;;;;;18.00;9.00;;;;;15.16;53.46;102087.41;5096443;27;45479;-42
2022/05/09 04:01:37;;;;;;;;;10.00;10.00;;;;;15.15;53.49;102077.69;5096409;27;45401;-41
2022/05/09 04:04:03;;;;;;;;;9.67;7.33;;;;;15.14;53.79;102078.69;5096254;27;45444;-41
2022/05/09 04:06:28;;;;;;;;;14.67;6.00;;;;;15.12;53.79;102080.66;5112046;27;47141;-42
2022/05/09 04:08:53;;;;;;;;;11.67;8.67;;;;;15.10;53.86;102085.31;5096195;27;45449;-42
2022/05/09 04:11:19;;;;;;;;;10.33;10.33;;;;;15.09;53.85;102088.16;5096472;27;45526;-42
2022/05/09 04:13:45;;;;;;;;;9.67;9.00;;;;;15.08;54.13;102084.59;5096383;27;45403;-42
2022/05/09 04:18:59;;;;;;;;;9.33;9.33;;;;;15.03;53.97;102094.06;5096194;27;45304;-41
2022/05/09 04:21:25;;;;;;;;;9.00;7.67;;;;;15.01;54.27;102080.00;5095988;27;45317;-42
2022/05/09 04:23:55;;;;;;;;;13.67;12.33;;;;;14.97;54.26;102069.53;5096232;27;45362;-43
2022/05/09 04:26:24;;;;;;;;;14.67;12.00;;;;;14.98;54.09;102081.09;5095911;27;46142;-42
2022/05/09 04:28:50;;;;;;;;;14.33;11.00;;;;;14.97;54.06;102079.44;5096042;27;45415;-42
2022/05/09 04:31:15;;;;;;;;;9.00;9.00;;;;;14.95;54.18;102082.22;5096083;27;45386;-42
2022/05/09 04:33:41;;;;;;;;;10.67;10.67;;;;;14.96;54.34;102088.47;5096282;27;45379;-42
2022/05/09 04:36:07;;;;;;;;;11.00;11.00;;;;;14.94;54.60;102085.06;5098324;27;46187;-43
2022/05/09 04:38:33;;;;;;;;;12.33;10.00;;;;;14.95;54.39;102086.75;5099375;27;45311;-41
2022/05/09 04:40:58;;;;;;;;;12.33;11.00;;;;;14.92;54.46;102070.97;5099668;27;45458;-42
2022/05/09 04:43:28;;;;;;;;;16.33;14.00;;;;;14.94;54.93;102075.19;5099473;27;45406;-42
2022/05/09 04:45:53;;;;;;;;;15.00;12.33;;;;;14.96;54.81;102077.75;5099672;27;47017;-42
2022/05/09 04:48:21;;;;;;;;;15.33;13.67;;;;;14.95;54.52;102070.66;5098086;27;45589;-42
2022/05/09 04:50:47;;;;;;;;;15.67;13.67;;;;;14.97;54.47;102084.78;5099135;27;45394;-41
2022/05/09 04:53:12;;;;;;;;;12.67;8.67;;;;;14.98;54.76;102087.31;5099628;27;45353;-41
2022/05/09 04:55:38;;;;;;;;;11.00;9.67;;;;;14.99;54.45;102085.47;5099220;27;45528;-42
2022/05/09 04:58:04;;;;;;;;;15.67;12.00;;;;;15.01;54.59;102091.53;5099223;27;45376;-41
2022/05/09 05:00:31;;;;;;;;;20.67;11.00;;;;;15.03;54.52;102088.72;5099400;27;45445;-42
2022/05/09 05:02:56;;;;;;;;;16.00;11.00;;;;;15.04;54.34;102083.19;5099399;27;45335;-42
2022/05/09 05:05:24;;;;;;;;;12.00;10.00;;;;;15.05;54.56;102076.88;5099399;27;46094;-41
2022/05/09 05:07:50;;;;;;;;;17.00;11.67;;;;;15.06;54.44;102080.41;5099249;27;45300;-42
2022/05/09 05:10:16;;;;;;;;;8.67;8.67;;;;;15.06;54.32;102086.59;5099680;27;45440;-42
2022/05/09 05:12:41;;;;;;;;;12.67;11.00;;;;;15.07;54.56;102080.25;5099059;27;45502;-41
2022/05/09 05:15:08;;;;;;;;;10.67;10.67;;;;;15.07;54.14;102082.91;5097866;27;46254;-42
2022/05/09 05:17:34;;;;;;;;;20.33;12.67;;;;;15.09;54.48;102088.16;5098961;27;45347;-43
2022/05/09 05:20:00;;;;;;;;;15.67;12.33;;;;;14.80;54.38;102043.47;5098950;27;45651;-41
2022/05/09 05:22:26;;;;;;;;;14.67;11.00;;;;;15.14;54.54;102093.94;5099110;27;45161;-41
2022/05/09 05:24:53;;;;;;;;;11.33;11.33;;;;;15.17;54.45;102085.59;5098635;27;45397;-42
2022/05/09 05:27:21;;;;;;;;;16.33;14.00;;;;;15.15;54.49;102091.09;5098940;27;45563;-42
2022/05/09 05:29:47;;;;;;;;;11.00;11.00;;;;;15.23;54.31;102093.06;5098778;27;45487;-42
2022/05/09 05:32:17;;;;;;;;;16.00;14.33;;;;;15.26;54.21;102089.25;5098762;27;45405;-41
2022/05/09 05:34:42;;;;;;;;;15.00;11.00;;;;;15.28;54.12;102095.31;5098430;27;45482;-42
2022/05/09 05:37:08;;;;;;;;;15.67;11.67;;;;;15.27;54.19;102082.91;5098557;27;45444;-40
2022/05/09 05:39:36;;;;;;;;;17.00;12.67;;;;;15.35;54.00;102093.75;5098716;27;45400;-41
2022/05/09 05:42:03;;;;;;;;;16.33;11.00;;;;;15.33;54.07;102084.97;5098683;27;45308;-40
2022/05/09 05:44:29;;;;;;;;;15.00;11.00;;;;;15.38;53.90;102094.31;5098211;27;46202;-41
2022/05/09 05:46:54;;;;;;;;;16.00;14.00;;;;;15.46;54.07;102097.09;5097913;27;45384;-42
2022/05/09 05:49:19;;;;;;;;;23.00;12.00;;;;;15.50;53.85;102094.13;5098660;27;45326;-42
2022/05/09 05:51:45;;;;;;;;;17.33;13.33;;;;;15.52;53.74;102095.66;5098542;27;45376;-42
2022/05/09 05:54:10;;;;;;;;;23.00;14.33;;;;;15.57;53.57;102089.88;5098112;27;47109;-41
2022/05/09 05:56:37;;;;;;;;;24.00;15.67;;;;;15.60;53.68;102095.78;5098325;27;45342;-41
2022/05/09 05:59:04;;;;;;;;;20.67;12.67;;;;;15.54;53.46;102074.91;5098220;27;45391;-42
2022/05/09 06:01:29;;;;;;;;;16.33;12.67;;;;;15.67;53.41;102091.56;5098508;27;45417;-42
2022/05/09 06:03:54;;;;;;;;;16.00;14.00;;;;;15.74;53.52;102093.66;5097823;27;46090;-41
2022/05/09 06:06:20;;;;;;;;;19.00;11.00;;;;;15.79;53.51;102097.56;5098372;27;45395;-41
2022/05/09 06:08:46;;;;;;;;;17.33;15.33;;;;;15.85;53.12;102098.84;5097110;27;45481;-42
2022/05/09 06:11:13;;;;;;;;;22.00;18.00;;;;;15.79;53.02;102078.78;5098291;27;45517;-41
2022/05/09 06:13:38;;;;;;;;;15.00;12.00;;;;;15.91;53.02;102104.44;5098025;27;46553;-41
2022/05/09 06:16:04;;;;;;;;;17.00;13.67;;;;;15.64;52.34;102046.25;5097799;27;45311;-41
2022/05/09 06:18:29;;;;;;;;;18.33;15.00;;;;;15.99;52.82;102102.84;5098225;27;45390;-41
2022/05/09 06:20:55;;;;;;;;;17.00;13.67;;;;;16.05;52.78;102112.97;5098196;27;45311;-42
2022/05/09 06:23:21;;;;;;;;;18.33;15.33;;;;;16.11;52.62;102102.50;5097947;27;46014;-42
2022/05/09 06:25:48;;;;;;;;;17.67;14.00;;;;;16.20;52.30;102104.28;5097925;27;45394;-41
2022/05/09 06:28:15;;;;;;;;;14.33;13.00;;;;;16.27;52.25;102104.53;5097864;27;45327;-41
2022/05/09 06:30:41;;;;;;;;;20.67;15.00;;;;;16.34;51.78;102108.28;5098317;27;45443;-41
2022/05/09 06:33:07;;;;;;;;;17.33;15.33;;;;;16.41;51.86;102108.53;5097828;27;45314;-43
2022/05/09 06:35:33;;;;;;;;;12.00;12.00;;;;;16.48;52.08;102112.31;5097020;27;45364;-41
2022/05/09 06:38:05;;;;;;;;;14.67;13.33;;;;;16.57;51.68;102110.56;5097896;27;45230;-45
2022/05/09 06:40:32;;;;;;;;;17.00;16.00;;;;;16.65;51.51;102110.63;5098240;27;45740;-41
2022/05/09 06:42:58;;;;;;;;;16.00;14.00;;;;;16.74;50.84;102112.44;5097614;27;45397;-42
2022/05/09 06:45:24;;;;;;;;;15.67;11.33;;;;;16.86;50.83;102110.38;5097693;27;45223;-42
2022/05/09 06:47:51;;;;;;;;;19.00;13.33;;;;;17.01;50.65;102110.63;5097661;27;45363;-41
2022/05/09 06:50:19;;;;;;;;;15.33;14.67;;;;;17.17;50.38;102113.47;5097705;27;45408;-42
2022/05/09 06:52:44;;;;;;;;;16.67;14.00;;;;;17.43;49.86;102111.63;5096998;27;45568;-41
2022/05/09 06:55:11;;;;;;;;;15.67;13.00;;;;;17.82;49.17;102113.88;5097528;27;45752;-42
2022/05/09 06:57:43;;;;;;;;;16.67;15.00;;;;;18.31;48.60;102122.16;5096726;27;45770;-41
2022/05/09 07:00:16;;;;;;;;;19.33;16.67;;;;;18.93;47.24;102114.56;5097623;27;45320;-41
2022/05/09 07:02:42;;;;;;;;;16.33;14.00;;;;;19.64;46.36;102110.28;5096807;27;46459;-40
2022/05/09 07:05:09;;;;;;;;;18.67;14.00;;;;;20.33;45.17;102107.78;5097230;27;45340;-41
2022/05/09 07:07:35;;;;;;;;;17.33;14.67;;;;;21.02;43.89;102107.81;5097245;27;45384;-42
2022/05/09 07:10:00;;;;;;;;;17.67;16.33;;;;;21.59;42.63;102106.44;5097581;27;45856;-41
2022/05/09 07:12:26;;;;;;;;;18.33;14.00;;;;;22.19;41.38;102107.25;5097179;27;47130;-41
2022/05/09 07:14:51;;;;;;;;;22.00;16.67;;;;;22.79;40.49;102097.88;5096722;27;45311;-41
2022/05/09 07:17:17;;;;;;;;;16.33;15.67;;;;;23.55;38.32;102108.94;5097390;27;45359;-41
2022/05/09 07:19:43;;;;;;;;;21.33;18.00;;;;;24.68;35.73;102099.41;5097473;27;45300;-41
2022/05/09 07:22:08;;;;;;;;;16.00;15.00;;;;;26.22;35.04;102098.13;5096850;27;45517;-41
2022/05/09 07:24:34;;;;;;;;;18.25;16.75;;;;;27.84;32.87;102107.31;5096832;27;45352;-41
2022/05/09 07:26:59;;;;;;;;;21.00;18.00;;;;;29.08;30.71;102097.56;5096929;27;45342;-41
2022/05/09 07:29:25;;;;;;;;;18.50;17.00;;;;;30.08;28.51;102101.94;5096004;27;45404;-41
2022/05/09 07:31:50;;;;;;;;;19.00;17.25;;;;;30.99;26.89;102099.22;5096670;27;46557;-41
2022/05/09 07:34:15;;;;;;;;;17.00;14.75;;;;;31.76;26.68;102103.09;5096658;27;45476;-42
2022/05/09 07:36:41;;;;;;;;;15.00;13.75;;;;;32.52;25.46;102095.72;5096790;27;45507;-41
2022/05/09 07:39:07;;;;;;;;;14.00;12.80;;;;;33.28;24.32;102091.91;5097024;27;45230;-41
2022/05/09 07:41:33;;;;;;;;;19.50;15.75;;;;;33.99;23.25;102086.75;5096293;27;45345;-42
2022/05/09 07:43:58;;;;;;;;;18.25;17.25;;;;;34.80;21.91;102096.28;5096677;27;45435;-42
2022/05/09 07:46:23;;;;;;;;;17.00;15.00;;;;;35.36;21.98;102096.22;5096694;27;45443;-41
2022/05/09 07:48:49;;;;;;;;;19.00;15.50;;;;;35.99;20.42;102087.44;5096698;27;45387;-41
2022/05/09 07:51:16;;;;;;;;;17.50;12.50;;;;;36.55;20.53;102089.03;5112478;27;47084;-41
2022/05/09 07:53:41;;;;;;;;;17.80;15.80;;;;;37.10;19.30;102096.00;5096130;27;45393;-41
2022/05/09 07:56:07;;;;;;;;;16.00;14.75;;;;;37.59;19.80;102077.41;5096744;27;45414;-42
2022/05/09 07:58:33;;;;;;;;;15.75;14.75;;;;;38.22;18.75;102085.44;5096832;27;45446;-41
2022/05/09 08:01:00;;;;;;;;;19.20;16.20;;;;;38.81;18.34;102088.69;5095865;27;45378;-42
2022/05/09 08:03:29;;;;;;;;;18.60;16.60;;;;;39.29;17.29;102085.63;5095809;27;45341;-41
2022/05/09 08:05:56;;;;;;;;;17.40;16.00;;;;;39.81;17.13;102087.00;5095698;27;45359;-41
2022/05/09 08:08:22;;;;;;;;;16.20;15.20;;;;;40.23;17.27;102084.97;5096717;27;45335;-41
2022/05/09 08:10:48;;;;;;;;;15.00;14.00;;;;;40.70;16.57;102082.69;5099577;27;46261;-41
2022/05/09 08:13:16;;;;;;;;;16.60;15.20;;;;;41.31;15.93;102083.00;5099882;27;45344;-41
2022/05/09 08:15:44;;;;;;;;;15.60;15.20;;;;;41.71;15.71;102080.97;5100271;27;45375;-42
2022/05/09 08:18:09;;;;;;;;;18.40;14.40;;;;;42.20;15.82;102080.88;5100212;27;45355;-41
2022/05/09 08:20:35;;;;;;;;;17.00;17.00;;;;;42.46;15.95;102081.69;5099688;27;47338;-41
2022/05/09 08:23:10;;;;;;;;;18.25;17.00;;;;;42.58;16.51;102086.59;5099505;27;45431;-42
2022/05/09 08:25:37;;;;;;;;;16.00;15.80;;;;;42.90;15.42;102084.38;5115764;27;45459;-41
2022/05/09 08:28:05;;;;;;;;;20.20;18.20;;;;;43.37;14.65;102082.41;5100242;27;45299;-41
2022/05/09 08:30:33;;;;;;;;;18.20;15.80;;;;;43.67;14.44;102080.44;5099688;27;46270;-42
2022/05/09 08:33:09;;;;;;;;;24.80;22.40;;;;;44.06;13.90;102083.94;5099584;27;45354;-42
2022/05/09 08:35:35;;;;;;;;;24.40;22.60;;;;;44.37;13.45;102082.69;5099813;27;45319;-44
2022/05/09 08:38:01;;;;;;;;;22.75;21.75;;;;;44.47;13.72;102091.50;5099675;27;45838;-41
2022/05/09 08:40:35;;;;;;;;;26.00;22.50;;;;;44.84;14.46;102087.97;5099274;27;45425;-41
2022/05/09 08:43:23;;;;;;;;;20.40;20.40;;;;;45.22;13.87;102088.50;5099567;27;45276;-41
2022/05/09 08:46:03;;;;;;;;;28.20;19.80;;;;;45.63;13.66;102080.97;5099681;27;45335;-42
2022/05/09 08:48:47;;;;;;;;;19.60;19.00;;;;;46.17;13.86;102079.78;5099932;27;45371;-43
2022/05/09 08:51:38;;;;;;;;;22.60;22.40;;;;;46.31;13.52;102074.56;5099413;27;46285;-40
2022/05/09 08:54:08;;;;;;;;;26.40;25.00;;;;;46.36;12.76;102077.16;5099112;27;45313;-41
2022/05/09 08:56:34;;;;;;;;;20.80;19.20;;;;;46.61;11.96;102077.00;5099286;27;45457;-41
2022/05/09 08:59:04;;;;;;;;;22.75;20.50;;;;;46.83;12.43;102076.41;5099446;27;45517;-42
2022/05/09 09:01:37;;;;;;;;;20.80;19.20;;;;;46.97;12.91;102070.34;5099013;27;47346;-41
2022/05/09 09:04:21;;;;;;;;;21.80;19.20;;;;;47.16;11.81;102064.78;5098990;27;45303;-41
2022/05/09 09:06:47;;;;;;;;;20.40;17.60;;;;;47.65;11.25;102058.66;5099352;27;45421;-42
2022/05/09 09:09:29;;;;;;;;;16.40;15.80;;;;;47.84;11.69;102071.16;5099279;27;45359;-41
2022/05/09 09:12:13;;;;;;;;;18.60;18.20;;;;;48.08;12.15;102067.25;5099123;27;45387;-41
2022/05/09 09:15:03;;;;;;;;;21.80;19.80;;;;;48.53;11.14;102069.34;5099186;27;45531;-42
2022/05/09 09:17:55;;;;;;;;;21.80;17.80;;;;;48.98;11.33;102064.88;5097311;27;49358;-41
2022/05/09 09:20:27;;;;;;;;;24.80;19.20;;;;;49.23;10.61;102067.31;5114324;27;45370;-42
2022/05/09 09:23:15;;;;;;;;;25.00;21.60;;;;;49.27;10.29;102062.53;5114533;27;47519;-42
2022/05/09 09:26:09;;;;;;;;;25.00;19.20;;;;;49.58;10.30;102061.38;5099054;27;45430;-42
2022/05/09 09:28:49;;;;;;;;;18.80;18.40;;;;;49.82;11.35;102054.41;5098912;27;45424;-45
2022/05/09 09:31:28;;;;;;;;;22.80;18.60;;;;;50.20;10.44;102046.81;5099105;27;45528;-41
2022/05/09 09:34:16;;;;;;;;;22.20;18.80;;;;;50.28;10.63;102051.34;5098559;27;47314;-42
2022/05/09 09:36:49;;;;;;;;;19.00;17.20;;;;;50.34;10.04;102050.56;5055860;28;46059;-43
2022/05/09 09:39:19;;;;;;;;;21.00;17.60;;;;;50.50;9.51;102041.81;5055682;28;45484;-42
2022/05/09 09:41:46;;;;;;;;;21.60;17.60;;;;;50.76;10.14;102046.53;5055763;28;45581;-41
2022/05/09 09:44:13;;;;;;;;;19.60;17.00;;;;;51.06;9.03;102049.19;5055518;28;46888;-41
2022/05/09 09:47:12;;;;;;;;;16.60;16.20;;;;;51.00;10.23;102047.94;5055691;28;46223;-41
2022/05/09 09:49:43;;;;;;;;;16.40;15.60;;;;;51.16;11.00;102054.13;5055682;28;45819;-42
2022/05/09 09:52:23;;;;;;;;;19.40;17.80;;;;;51.33;10.14;102054.63;5055900;28;45463;-42
2022/05/09 09:54:51;;;;;;;;;18.60;16.00;;;;;51.54;9.66;102049.13;5054817;28;47469;-41
2022/05/09 09:57:23;;;;;;;;;19.20;17.60;;;;;51.42;10.02;102046.59;5055202;28;45556;-41
2022/05/09 09:59:49;;;;;;;;;20.00;17.00;;;;;51.10;11.37;102046.38;5055253;28;45394;-41
2022/05/09 10:02:22;;;;;;;;;18.50;15.75;;;;;50.94;10.40;102045.88;5055473;28;45414;-41
2022/05/09 10:04:48;;;;;;;;;17.00;17.00;;;;;50.94;10.07;102038.19;5054889;28;47195;-42
2022/05/09 10:07:28;;;;;;;;;18.00;16.75;;;;;50.83;9.90;102040.91;5055147;28;45519;-42
2022/05/09 10:10:07;;;;;;;;;16.40;16.20;;;;;50.53;10.32;102041.09;5055103;28;45450;-42
2022/05/09 10:12:33;;;;;;;;;18.00;16.60;;;;;50.36;9.70;102036.84;5055944;27;45585;-41
2022/05/09 10:15:01;;;;;;;;;14.00;14.00;;;;;50.37;11.16;102040.50;5097825;27;46303;-43
2022/05/09 10:17:30;;;;;;;;;19.00;14.40;;;;;50.10;10.21;102036.94;5097963;27;45384;-42
2022/05/09 10:19:58;;;;;;;;;16.60;15.40;;;;;49.83;10.73;102027.78;5098126;27;45327;-42
2022/05/09 10:25:22;;;;;;;;;18.60;15.40;;;;;49.98;11.02;102012.56;5097515;27;45773;-44
2022/05/09 10:28:12;;;;;;;;;21.60;19.20;;;;;50.36;9.29;102017.03;5096454;27;45327;-42
2022/05/09 10:30:42;;;;;;;;;20.60;16.80;;;;;50.45;9.78;102015.91;5097840;27;45475;-42
2022/05/09 10:33:22;;;;;;;;;17.80;15.60;;;;;50.85;9.53;102010.16;5096979;27;45311;-41
2022/05/09 10:35:56;;;;;;;;;21.40;19.40;;;;;51.00;9.40;102011.09;5097693;27;46393;-43
2022/05/09 10:38:32;;;;;;;;;14.80;14.80;;;;;50.96;10.42;102010.28;5097505;27;45273;-42
2022/05/09 10:41:09;;;;;;;;;17.20;13.60;;;;;51.12;10.77;102009.94;5097690;27;45535;-42
2022/05/09 10:43:52;;;;;;;;;16.80;15.60;;;;;51.28;10.67;102010.47;5097854;27;45457;-41
2022/05/09 10:46:20;;;;;;;;;16.20;15.00;;;;;51.27;9.92;102000.34;5097379;27;46310;-42
2022/05/09 10:48:57;;;;;;;;;21.60;19.60;;;;;51.21;9.63;101999.09;5097154;27;45359;-42
2022/05/09 10:51:39;;;;;;;;;18.00;17.00;;;;;51.07;9.83;102004.66;5097601;27;45339;-42
2022/05/09 10:54:18;;;;;;;;;20.80;17.60;;;;;50.98;9.26;101988.00;5097570;27;45428;-41
2022/05/09 10:56:53;;;;;;;;;14.60;14.60;;;;;50.81;10.12;101997.19;5097396;27;46102;-42
2022/05/09 10:59:27;;;;;;;;;16.60;16.00;;;;;50.64;9.40;101990.19;5113410;27;45366;-41
2022/05/09 11:02:00;;;;;;;;;15.60;15.60;;;;;50.30;9.76;101995.13;5097444;27;45424;-40
2022/05/09 11:04:28;;;;;;;;;17.20;15.00;;;;;50.01;9.82;101977.03;5097291;27;45485;-42
2022/05/09 11:07:09;;;;;;;;;15.20;14.40;;;;;49.77;10.02;101989.66;5097301;27;45444;-41
2022/05/09 11:09:41;;;;;;;;;17.00;14.60;;;;;49.35;10.57;101985.09;5097232;27;45305;-43
2022/05/09 11:12:27;;;;;;;;;17.80;16.60;;;;;48.66;10.71;101988.06;5097290;27;45318;-41
2022/05/09 11:15:40;;;;;;;;;17.20;15.60;;;;;47.56;10.88;101987.56;5097068;27;45424;-41
2022/05/09 11:18:28;;;;;;;;;19.80;16.80;;;;;46.66;11.42;101987.50;5054174;28;46502;-41
2022/05/09 11:21:12;;;;;;;;;20.20;18.20;;;;;44.89;12.19;101993.13;5054049;28;45476;-41
2022/05/09 11:23:53;;;;;;;;;16.20;16.20;;;;;42.89;13.97;101990.38;5054325;28;45503;-42
2022/05/09 11:26:38;;;;;;;;;19.80;16.80;;;;;41.13;14.70;101987.22;5054291;28;45441;-41
2022/05/09 11:29:54;;;;;;;;;19.40;17.00;;;;;39.55;16.13;101977.28;5037031;28;48583;-42
2022/05/09 11:32:35;;;;;;;;;20.20;18.20;;;;;37.92;17.63;101972.84;4974432;28;45500;-42